| time (UTC) | temp F | wind direction | speed knots | gust knots | rain 1hr in | rain 24hr in | rain mn in | humidity % | barometer mb |
| 20260506211324 | 58 | 235 | 0.0 | 1.7 | 0.00 | 0.18 | 0.18 | 99 | 1004.4 |
| 20260506210129 | 58 | 159 | 0.0 | 0.9 | 0.00 | 0.18 | 0.18 | 99 | 1004.4 |
| 20260506205008 | 58 | 212 | 0.0 | 0.9 | 0.00 | 0.18 | 0.18 | 99 | 1004.5 |
| 20260506204330 | 58 | 211 | 0.0 | 0.9 | 0.00 | 0.17 | 0.17 | 99 | 1004.5 |
| 20260506203127 | 58 | 226 | 0.0 | 0.9 | 0.00 | 0.17 | 0.17 | 98 | 1004.5 |
| 20260506202008 | 58 | 267 | 0.9 | 3.5 | 0.00 | 0.17 | 0.17 | 98 | 1004.5 |
| 20260506201325 | 58 | 211 | 0.0 | 0.0 | 0.00 | 0.17 | 0.17 | 98 | 1004.7 |
| 20260506200125 | 58 | 205 | 0.0 | 0.9 | 0.00 | 0.17 | 0.17 | 98 | 1004.7 |
| 20260506195007 | 58 | 235 | 0.0 | 0.9 | 0.00 | 0.17 | 0.17 | 98 | 1004.9 |
| 20260506194323 | 58 | 220 | 0.0 | 0.0 | 0.00 | 0.15 | 0.15 | 98 | 1005.0 |
| 20260506193123 | 58 | 250 | 0.0 | 1.7 | 0.00 | 0.14 | 0.14 | 98 | 1005.0 |
| 20260506192011 | 58 | 212 | 0.9 | 1.7 | 0.00 | 0.14 | 0.14 | 97 | 1005.2 |
| 20260506190125 | 58 | 225 | 0.0 | 0.0 | 0.00 | 0.11 | 0.11 | 97 | 1005.3 |
| 20260506185011 | 58 | 170 | 0.0 | 0.0 | 0.00 | 0.10 | 0.10 | 97 | 1005.4 |
| 20260506184327 | 58 | 205 | 0.9 | 3.5 | 0.00 | 0.10 | 0.10 | 96 | 1005.5 |
| 20260506183127 | 58 | 226 | 0.0 | 0.0 | 0.00 | 0.10 | 0.10 | 96 | 1005.5 |
| 20260506181327 | 59 | 239 | 0.0 | 1.7 | 0.00 | 0.10 | 0.10 | 96 | 1005.5 |
| 20260506180127 | 59 | 141 | 0.0 | 0.9 | 0.00 | 0.09 | 0.09 | 96 | 1005.4 |
| 20260506175010 | 60 | 218 | 0.0 | 0.0 | 0.00 | 0.09 | 0.09 | 95 | 1005.6 |
| 20260506174327 | 60 | 231 | 0.0 | 0.0 | 0.00 | 0.08 | 0.08 | 96 | 1005.5 |
| 20260506173126 | 60 | 85 | 0.0 | 0.0 | 0.00 | 0.07 | 0.07 | 95 | 1005.7 |
| 20260506172010 | 60 | 197 | 0.0 | 0.0 | 0.00 | 0.07 | 0.07 | 94 | 1005.8 |
| 20260506171333 | 60 | 200 | 0.0 | 0.0 | 0.00 | 0.05 | 0.05 | 93 | 1006.1 |
| 20260506170125 | 61 | 200 | 0.0 | 0.0 | 0.00 | 0.03 | 0.03 | 91 | 1006.6 |
| 20260506165008 | 62 | 203 | 0.0 | 0.0 | 0.00 | 0.02 | 0.02 | 89 | 1006.9 |
| 20260506164325 | 63 | 227 | 0.0 | 0.0 | 0.00 | 0.00 | 0.00 | 86 | 1006.8 |
| 20260506163127 | 64 | 269 | 0.9 | 1.7 | 0.00 | 0.00 | 0.00 | 84 | 1006.8 |
| 20260506161332 | 65 | 231 | 0.0 | 0.9 | 0.00 | 0.00 | 0.00 | 80 | 1006.7 |
| 20260506160129 | 65 | 226 | 0.0 | 0.9 | 0.00 | 0.00 | 0.00 | 77 | 1006.8 |
| 20260506155012 | 66 | 219 | 0.0 | 0.9 | 0.00 | 0.00 | 0.00 | 77 | 1006.9 |
| 20260506154323 | 65 | 233 | 0.0 | 1.7 | 0.00 | 0.00 | 0.00 | 78 | 1007.1 |
| 20260506153122 | 65 | 131 | 0.9 | 2.6 | 0.00 | 0.00 | 0.00 | 78 | 1007.3 |
| 20260506152010 | 65 | 235 | 0.0 | 0.9 | 0.00 | 0.00 | 0.00 | 78 | 1007.2 |
| 20260506151321 | 65 | 218 | 0.0 | 0.9 | 0.00 | 0.00 | 0.00 | 79 | 1007.3 |
| 20260506150127 | 65 | 212 | 0.9 | 2.6 | 0.00 | 0.00 | 0.00 | 79 | 1007.3 |
| 20260506145009 | 65 | 226 | 0.0 | 0.0 | 0.00 | 0.00 | 0.00 | 80 | 1007.3 |
| 20260506143125 | 64 | 210 | 0.9 | 1.7 | 0.00 | 0.00 | 0.00 | 81 | 1007.5 |
| 20260506142008 | 63 | 65 | 0.9 | 2.6 | 0.00 | 0.00 | 0.00 | 81 | 1007.5 |
| 20260506141325 | 63 | 217 | 0.0 | 0.0 | 0.00 | 0.00 | 0.00 | 83 | 1007.5 |
| 20260506140125 | 63 | 195 | 0.9 | 2.6 | 0.00 | 0.00 | 0.00 | 84 | 1007.4 |
| 20260506135009 | 62 | 201 | 0.0 | 0.9 | 0.00 | 0.00 | 0.00 | 85 | 1007.5 |
| 20260506134008 | 62 | 214 | 0.0 | 0.0 | 0.00 | 0.00 | 0.00 | 85 | 1007.5 |
| 20260506132009 | 61 | 210 | 0.0 | 0.0 | 0.00 | 0.00 | 0.00 | 87 | 1007.2 |
| 20260506131332 | 60 | 235 | 0.0 | 1.7 | 0.00 | 0.00 | 0.00 | 88 | 1007.4 |
| 20260506130121 | 60 | 228 | 0.0 | 1.7 | 0.00 | 0.00 | 0.00 | 88 | 1007.6 |
| 20260506125008 | 60 | 228 | 0.0 | 0.9 | 0.00 | 0.00 | 0.00 | 89 | 1007.6 |
| 20260506124325 | 59 | 221 | 0.0 | 0.0 | 0.00 | 0.00 | 0.00 | 89 | 1007.6 |
| 20260506123126 | 59 | 232 | 0.0 | 0.9 | 0.00 | 0.00 | 0.00 | 89 | 1007.9 |
| 20260506122010 | 59 | 40 | 0.0 | 1.7 | 0.00 | 0.00 | 0.00 | 90 | 1008.0 |
| 20260506121327 | 59 | 170 | 0.9 | 2.6 | 0.00 | 0.00 | 0.00 | 90 | 1007.9 |
| 20260506120126 | 58 | 193 | 0.0 | 0.0 | 0.00 | 0.00 | 0.00 | 91 | 1007.8 |
| 20260506115011 | 58 | 266 | 0.9 | 1.7 | 0.00 | 0.00 | 0.00 | 91 | 1007.7 |
| 20260506114322 | 58 | 229 | 0.0 | 0.9 | 0.00 | 0.00 | 0.00 | 92 | 1007.9 |
| 20260506113126 | 58 | 221 | 0.0 | 0.9 | 0.00 | 0.00 | 0.00 | 92 | 1007.9 |
| 20260506112010 | 57 | 205 | 0.0 | 0.9 | 0.00 | 0.00 | 0.00 | 93 | 1008.1 |
| 20260506111327 | 57 | 287 | 0.0 | 0.0 | 0.00 | 0.00 | 0.00 | 93 | 1007.9 |
| 20260506110124 | 57 | 215 | 0.0 | 0.9 | 0.00 | 0.00 | 0.00 | 94 | 1007.9 |
| 20260506105010 | 56 | 226 | 0.9 | 1.7 | 0.00 | 0.00 | 0.00 | 95 | 1008.1 |
| 20260506104327 | 56 | 229 | 0.0 | 0.9 | 0.00 | 0.00 | 0.00 | 95 | 1007.9 |
| 20260506102011 | 55 | 226 | 0.0 | 0.9 | 0.00 | 0.00 | 0.00 | 95 | 1008.1 |
| 20260506101328 | 55 | 219 | 0.0 | 0.9 | 0.00 | 0.00 | 0.00 | 94 | 1007.9 |
| 20260506095007 | 55 | 216 | 0.0 | 0.9 | 0.00 | 0.00 | 0.00 | 93 | 1007.9 |
| 20260506094324 | 55 | 222 | 0.0 | 0.9 | 0.00 | 0.00 | 0.00 | 93 | 1007.6 |
| 20260506093126 | 55 | 222 | 0.0 | 0.9 | 0.00 | 0.00 | 0.00 | 93 | 1007.7 |
| 20260506092010 | 55 | 240 | 0.0 | 0.0 | 0.00 | 0.00 | 0.00 | 93 | 1007.7 |
| 20260506091321 | 56 | 245 | 0.0 | 0.9 | 0.00 | 0.00 | 0.00 | 92 | 1007.8 |
| 20260506090123 | 56 | 242 | 0.0 | 0.9 | 0.00 | 0.00 | 0.00 | 91 | 1007.9 |
| 20260506085007 | 56 | 232 | 0.0 | 0.9 | 0.00 | 0.00 | 0.00 | 91 | 1007.9 |
| 20260506084330 | 56 | 269 | 0.0 | 0.9 | 0.00 | 0.00 | 0.00 | 90 | 1007.8 |
| 20260506083128 | 56 | 221 | 0.0 | 0.9 | 0.00 | 0.00 | 0.00 | 90 | 1007.9 |
| 20260506082011 | 57 | 207 | 0.9 | 3.5 | 0.00 | 0.00 | 0.00 | 89 | 1007.9 |
| 20260506081327 | 57 | 232 | 0.0 | 0.9 | 0.00 | 0.00 | 0.00 | 89 | 1008.0 |
| 20260506080127 | 57 | 217 | 0.0 | 0.0 | 0.00 | 0.00 | 0.00 | 89 | 1007.8 |
| 20260506071324 | 57 | 231 | 0.0 | 0.9 | 0.00 | 0.00 | 0.00 | 86 | 1008.0 |
| 20260506070123 | 57 | 212 | 0.0 | 0.0 | 0.00 | 0.00 | 0.00 | 86 | 1008.1 |
| 20260506062008 | 59 | 235 | 0.0 | 0.9 | 0.00 | 0.00 | 0.00 | 82 | 1007.9 |
| 20260506061325 | 59 | 193 | 0.0 | 0.9 | 0.00 | 0.00 | 0.00 | 81 | 1008.0 |
| 20260506060127 | 59 | 218 | 0.0 | 0.9 | 0.00 | 0.00 | 0.00 | 80 | 1008.1 |
| 20260506051325 | 61 | 229 | 0.0 | 0.9 | 0.00 | 0.00 | 0.00 | 77 | 1008.3 |
| 20260506050124 | 61 | 224 | 0.9 | 1.7 | 0.00 | 0.00 | 0.00 | 77 | 1008.4 |
| 20260506045008 | 61 | 208 | 0.0 | 0.9 | 0.00 | 0.00 | 0.00 | 77 | 1008.4 |
| 20260506044324 | 61 | 232 | 0.9 | 3.5 | 0.00 | 0.00 | 0.00 | 76 | 1008.5 |
| 20260506043121 | 61 | 221 | 0.0 | 0.9 | 0.00 | 0.00 | 0.00 | 76 | 1008.5 |
| 20260506042005 | 61 | 226 | 0.0 | 0.9 | 0.00 | 0.00 | 0.00 | 75 | 1008.4 |
| 20260506041328 | 61 | 212 | 0.0 | 0.0 | 0.00 | 0.00 | 0.00 | 75 | 1008.5 |
| 20260506040128 | 62 | 223 | 0.0 | 0.0 | 0.00 | 0.00 | 0.00 | 74 | 1008.5 |
| 20260506035005 | 62 | 210 | 0.0 | 0.9 | 0.00 | 0.00 | 0.00 | 74 | 1008.5 |
| 20260506031325 | 62 | 232 | 0.0 | 0.9 | 0.00 | 0.00 | 0.00 | 72 | 1008.6 |
| 20260506030122 | 62 | 222 | 0.0 | 0.9 | 0.00 | 0.00 | 0.00 | 72 | 1008.5 |
| 20260506025010 | 63 | 248 | 0.0 | 0.9 | 0.00 | 0.00 | 0.00 | 72 | 1008.5 |
| 20260506024327 | 63 | 0 | 0.0 | 0.9 | 0.00 | 0.00 | 0.00 | 71 | 1008.4 |
| 20260506021327 | 63 | 200 | 0.0 | 0.0 | 0.00 | 0.00 | 0.00 | 70 | 1008.2 |
| 20260506020123 | 63 | 226 | 0.0 | 0.9 | 0.00 | 0.00 | 0.00 | 70 | 1008.1 |
| 20260506015010 | 63 | 186 | 0.0 | 0.0 | 0.00 | 0.00 | 0.00 | 70 | 1008.2 |
| 20260506013125 | 63 | 221 | 0.0 | 0.9 | 0.00 | 0.00 | 0.00 | 70 | 1008.0 |
| 20260506012013 | 63 | 232 | 0.0 | 0.9 | 0.00 | 0.00 | 0.00 | 70 | 1007.9 |
| 20260506011323 | 64 | 207 | 0.0 | 0.0 | 0.00 | 0.00 | 0.00 | 69 | 1007.9 |
| 20260506010123 | 64 | 150 | 0.0 | 0.9 | 0.00 | 0.00 | 0.00 | 68 | 1007.8 |
| 20260506004326 | 65 | 115 | 0.0 | 0.9 | 0.00 | 0.00 | 0.00 | 68 | 1007.6 |
| 20260506003123 | 65 | 215 | 0.0 | 0.9 | 0.00 | 0.00 | 0.00 | 66 | 1007.4 |
| 20260506002007 | 66 | 201 | 0.0 | 0.9 | 0.00 | 0.00 | 0.00 | 66 | 1007.2 |
| 20260506000120 | 66 | 215 | 0.9 | 1.7 | 0.00 | 0.00 | 0.00 | 64 | 1006.9 |
| 20260505232007 | 68 | 208 | 0.0 | 1.7 | 0.00 | 0.00 | 0.00 | 61 | 1006.4 |
| 20260505231324 | 69 | 159 | 0.9 | 1.7 | 0.00 | 0.00 | 0.00 | 60 | 1006.2 |
| 20260505230123 | 70 | 228 | 0.0 | 1.7 | 0.00 | 0.00 | 0.00 | 59 | 1006.2 |
| 20260505225009 | 71 | 222 | 0.9 | 1.7 | 0.00 | 0.00 | 0.00 | 57 | 1006.1 |
| 20260505224320 | 72 | 176 | 0.0 | 0.0 | 0.00 | 0.00 | 0.00 | 55 | 1006.0 |
| 20260505223125 | 73 | 212 | 0.0 | 0.9 | 0.00 | 0.00 | 0.00 | 54 | 1005.8 |
| 20260505222009 | 73 | 201 | 0.0 | 1.7 | 0.00 | 0.00 | 0.00 | 54 | 1005.8 |
| 20260505221325 | 73 | 208 | 0.0 | 0.9 | 0.00 | 0.00 | 0.00 | 53 | 1005.7 |
| 20260505220121 | 73 | 208 | 0.9 | 1.7 | 0.00 | 0.00 | 0.00 | 53 | 1005.5 |
| 20260505213124 | 75 | 136 | 0.9 | 2.6 | 0.00 | 0.00 | 0.00 | 51 | 1005.9 |
| 20260505212010 | 75 | 207 | 0.9 | 1.7 | 0.00 | 0.00 | 0.00 | 50 | 1005.7 |